Time;durP1;ratioP1;P1;durP2;ratioP2;P2;SDS_P1;SDS_P2;PMS_P1;PMS_P2;Temp;Humidity;BMP_temperature;BMP_pressure;BME280_temperature;BME280_humidity;BME280_pressure;Samples;Min_cycle;Max_cycle;Signal;HPM_P1;HPM_P2
2021/04/17 00:01:47;;;;;;;1999.90;999.90;;;7.00;99.90;;;;;;5020830;28;20200;-84
2021/04/17 00:04:14;;;;;;;1999.90;999.90;;;7.00;99.90;;;;;;5020263;28;20634;-84
2021/04/17 00:06:39;;;;;;;1999.90;999.90;;;7.10;99.90;;;;;;5020553;28;20188;-85
2021/04/17 00:09:11;;;;;;;1999.90;999.90;;;7.10;99.90;;;;;;5020725;28;20625;-84
2021/04/17 00:11:37;;;;;;;1999.90;999.90;;;7.20;99.90;;;;;;5020635;28;20158;-84
2021/04/17 00:14:09;;;;;;;1999.90;999.90;;;7.30;99.90;;;;;;5020682;28;20626;-84
2021/04/17 00:16:35;;;;;;;1999.90;999.90;;;7.20;99.90;;;;;;5020668;28;20193;-84
2021/04/17 00:19:00;;;;;;;1999.90;999.90;;;7.10;99.90;;;;;;5020367;28;20193;-84
2021/04/17 00:21:26;;;;;;;1999.90;999.90;;;7.10;99.90;;;;;;5020463;28;20205;-84
2021/04/17 00:23:52;;;;;;;1999.90;999.90;;;7.10;99.90;;;;;;5020198;28;20603;-85
2021/04/17 00:26:18;;;;;;;1999.90;999.90;;;7.10;99.90;;;;;;5002432;28;20432;-84
2021/04/17 00:28:44;;;;;;;1999.90;999.90;;;7.00;99.90;;;;;;5019774;28;20249;-84
2021/04/17 00:31:10;;;;;;;1999.90;999.90;;;7.10;99.90;;;;;;5019651;28;20427;-84
2021/04/17 00:33:36;;;;;;;1999.90;999.90;;;7.00;99.90;;;;;;5020069;28;20407;-84
2021/04/17 00:36:01;;;;;;;1999.90;999.90;;;6.90;99.90;;;;;;5019966;28;20158;-84
2021/04/17 00:38:28;;;;;;;1999.90;999.90;;;6.90;99.90;;;;;;5018812;28;20759;-85
2021/04/17 00:40:54;;;;;;;1999.90;999.90;;;6.90;99.90;;;;;;5018884;28;20177;-84
2021/04/17 00:43:20;;;;;;;1999.90;999.90;;;6.80;99.90;;;;;;5019229;28;20185;-84
2021/04/17 00:45:46;;;;;;;1999.90;999.90;;;6.70;99.90;;;;;;5018312;28;20641;-84
2021/04/17 00:48:13;;;;;;;1999.90;999.90;;;6.60;99.90;;;;;;5019508;28;20562;-84
2021/04/17 00:50:39;;;;;;;1999.90;999.90;;;6.50;99.90;;;;;;5018957;28;20204;-84
2021/04/17 00:53:06;;;;;;;1999.90;999.90;;;6.50;99.90;;;;;;5019551;28;20169;-84
2021/04/17 00:55:33;;;;;;;1999.90;999.90;;;6.40;99.90;;;;;;5020460;28;20411;-84
2021/04/17 00:57:58;;;;;;;1999.90;999.90;;;6.40;99.90;;;;;;5019574;28;20194;-84
2021/04/17 01:00:24;;;;;;;1999.90;999.90;;;6.50;99.90;;;;;;5019952;28;20522;-84
2021/04/17 01:02:59;;;;;;;1999.90;999.90;;;6.60;99.90;;;;;;5019842;28;20247;-84
2021/04/17 01:05:28;;;;;;;1999.90;999.90;;;6.50;99.90;;;;;;5019595;28;20389;-84
2021/04/17 01:07:59;;;;;;;1999.90;999.90;;;6.50;99.90;;;;;;5019485;28;20224;-84
2021/04/17 01:10:56;;;;;;;1999.90;999.90;;;6.50;99.90;;;;;;5019313;28;20170;-84
2021/04/17 01:13:22;;;;;;;1999.90;999.90;;;6.30;99.90;;;;;;5023021;28;20188;-84
2021/04/17 01:15:50;;;;;;;1999.90;999.90;;;6.30;99.90;;;;;;5019509;28;20162;-84
2021/04/17 01:18:17;;;;;;;1999.90;999.90;;;6.20;99.90;;;;;;5019865;28;20514;-84
2021/04/17 01:20:46;;;;;;;1999.90;999.90;;;6.10;99.90;;;;;;5018252;28;20540;-84
2021/04/17 01:23:39;;;;;;;1999.90;999.90;;;6.00;99.90;;;;;;5019015;28;20245;-84
2021/04/17 01:26:09;;;;;;;1999.90;999.90;;;5.80;99.90;;;;;;5019367;28;20197;-84
2021/04/17 01:28:41;;;;;;;1999.90;999.90;;;5.80;99.90;;;;;;5019936;28;20166;-84
2021/04/17 01:31:11;;;;;;;1999.90;999.90;;;5.70;99.90;;;;;;5018862;28;20158;-84
2021/04/17 01:33:44;;;;;;;1999.90;999.90;;;5.60;99.90;;;;;;5019109;28;20173;-84
2021/04/17 01:36:11;;;;;;;1999.90;999.90;;;5.60;99.90;;;;;;5021442;28;20151;-84
2021/04/17 01:38:51;;;;;;;1999.90;999.90;;;5.60;99.90;;;;;;5023000;28;20193;-84
2021/04/17 01:41:26;;;;;;;1999.90;999.90;;;5.50;99.90;;;;;;5021435;28;20224;-84
2021/04/17 01:43:56;;;;;;;1999.90;999.90;;;5.40;99.90;;;;;;5022701;28;20161;-84
2021/04/17 01:46:25;;;;;;;1999.90;999.90;;;5.30;99.90;;;;;;5022484;28;20669;-84
2021/04/17 01:48:57;;;;;;;1999.90;999.90;;;5.10;99.90;;;;;;5089777;23;20236;-83
2021/04/17 01:51:24;;;;;;;1999.90;999.90;;;5.10;99.90;;;;;;5019391;28;20614;-82
2021/04/17 01:53:55;;;;;;;1999.90;999.90;;;5.00;99.90;;;;;;5019068;28;20162;-82
2021/04/17 01:56:22;;;;;;;1999.90;999.90;;;5.00;99.90;;;;;;5019075;28;20239;-82
2021/04/17 01:58:50;;;;;;;1999.90;999.90;;;5.00;99.90;;;;;;5018439;28;20280;-82
2021/04/17 02:01:20;;;;;;;1999.90;999.90;;;5.00;99.90;;;;;;5001722;28;20173;-83
2021/04/17 02:03:47;;;;;;;1999.90;999.90;;;4.90;99.90;;;;;;5018869;28;20241;-82
2021/04/17 02:06:13;;;;;;;1999.90;999.90;;;4.90;99.90;;;;;;5018596;28;20158;-82
2021/04/17 02:08:39;;;;;;;1999.90;999.90;;;4.90;99.90;;;;;;5019681;28;20177;-82
2021/04/17 02:11:09;;;;;;;1999.90;999.90;;;4.80;99.90;;;;;;5019379;28;20517;-82
2021/04/17 02:13:36;;;;;;;1999.90;999.90;;;4.70;99.90;;;;;;5018720;28;20220;-82
2021/04/17 02:16:21;;;;;;;1999.90;999.90;;;4.60;99.90;;;;;;5018300;28;20185;-82
2021/04/17 02:18:53;;;;;;;1999.90;999.90;;;4.60;99.90;;;;;;5000912;28;20194;-82
2021/04/17 02:21:23;;;;;;;1999.90;999.90;;;4.60;99.90;;;;;;5018646;28;20233;-82
2021/04/17 02:23:50;;;;;;;1999.90;999.90;;;4.60;99.90;;;;;;5018377;28;20254;-82
2021/04/17 02:26:19;;;;;;;1999.90;999.90;;;4.80;99.90;;;;;;5018180;28;20635;-82
2021/04/17 02:28:45;;;;;;;1999.90;999.90;;;4.80;99.90;;;;;;5018693;28;20170;-82
2021/04/17 02:31:12;;;;;;;1999.90;999.90;;;4.70;99.90;;;;;;5018181;28;20174;-82
2021/04/17 02:33:38;;;;;;;1999.90;999.90;;;4.60;99.90;;;;;;5018038;28;20172;-82
2021/04/17 02:36:04;;;;;;;1999.90;999.90;;;4.50;99.90;;;;;;5018057;28;20166;-82
2021/04/17 02:38:30;;;;;;;1999.90;999.90;;;4.50;99.90;;;;;;5000538;28;20263;-82
2021/04/17 02:40:55;;;;;;;1999.90;999.90;;;4.40;99.90;;;;;;5018126;28;20743;-82
2021/04/17 02:43:21;;;;;;;1999.90;999.90;;;4.30;99.90;;;;;;5017755;28;20166;-82
2021/04/17 02:45:47;;;;;;;1999.90;999.90;;;4.30;99.90;;;;;;5017820;28;20253;-82
2021/04/17 02:48:12;;;;;;;1999.90;999.90;;;4.30;99.90;;;;;;5016766;28;20198;-82
2021/04/17 02:50:38;;;;;;;1999.90;999.90;;;4.30;99.90;;;;;;5018507;28;20158;-82
2021/04/17 02:53:04;;;;;;;1999.90;999.90;;;4.50;99.90;;;;;;5018070;28;20162;-82
2021/04/17 02:55:30;;;;;;;1999.90;999.90;;;4.60;99.90;;;;;;5000155;28;20216;-82
2021/04/17 02:57:55;;;;;;;1999.90;999.90;;;4.60;99.90;;;;;;5017409;28;20444;-83
2021/04/17 03:00:25;;;;;;;1999.90;999.90;;;4.60;99.90;;;;;;4999730;28;20173;-81
2021/04/17 03:02:53;;;;;;;1999.90;999.90;;;4.50;99.90;;;;;;5017123;28;20154;-83
2021/04/17 03:05:20;;;;;;;1999.90;999.90;;;4.50;99.90;;;;;;4999689;28;20170;-82
2021/04/17 03:07:46;;;;;;;1999.90;999.90;;;4.30;99.90;;;;;;5017253;28;20190;-82
2021/04/17 03:10:13;;;;;;;1999.90;999.90;;;4.30;99.90;;;;;;4999964;28;20660;-82
2021/04/17 03:12:39;;;;;;;1999.90;999.90;;;4.20;99.90;;;;;;5017504;28;20170;-82
2021/04/17 03:15:06;;;;;;;1999.90;999.90;;;4.10;99.90;;;;;;4999476;28;20177;-82
2021/04/17 03:17:32;;;;;;;1999.90;999.90;;;4.10;99.90;;;;;;5016741;28;20200;-82
2021/04/17 03:19:59;;;;;;;1999.90;999.90;;;4.00;99.90;;;;;;4999631;28;20166;-82
2021/04/17 03:22:24;;;;;;;1999.90;999.90;;;4.00;99.90;;;;;;5017300;28;20652;-82
2021/04/17 03:24:50;;;;;;;1999.90;999.90;;;3.90;99.90;;;;;;5016723;28;20158;-82
2021/04/17 03:27:16;;;;;;;1999.90;999.90;;;3.80;99.90;;;;;;4999190;28;20735;-82
2021/04/17 03:29:41;;;;;;;1999.90;999.90;;;3.80;99.90;;;;;;5017152;28;20212;-82
2021/04/17 03:32:07;;;;;;;1999.90;999.90;;;3.70;99.90;;;;;;4999057;28;20724;-82
2021/04/17 03:34:33;;;;;;;1999.90;999.90;;;3.80;99.90;;;;;;5016794;28;20176;-82
2021/04/17 03:36:59;;;;;;;1999.90;999.90;;;3.80;99.90;;;;;;5016907;28;20428;-82
2021/04/17 03:39:25;;;;;;;1999.90;999.90;;;3.90;99.90;;;;;;4999204;28;20611;-84
2021/04/17 03:41:50;;;;;;;1999.90;999.90;;;3.80;99.90;;;;;;4999011;28;20440;-82
2021/04/17 03:44:16;;;;;;;1999.90;999.90;;;3.80;99.90;;;;;;5016691;28;20423;-82
2021/04/17 03:46:42;;;;;;;1999.90;999.90;;;3.70;99.90;;;;;;5016660;28;20188;-82
2021/04/17 03:49:07;;;;;;;1999.90;999.90;;;3.60;99.90;;;;;;4999222;28;20193;-82
2021/04/17 03:51:33;;;;;;;1999.90;999.90;;;3.50;99.90;;;;;;4999158;28;20421;-81
2021/04/17 03:53:59;;;;;;;1999.90;999.90;;;3.50;99.90;;;;;;5016496;28;20655;-82
2021/04/17 03:56:25;;;;;;;1999.90;999.90;;;3.60;99.90;;;;;;4998709;28;20569;-82
2021/04/17 03:58:51;;;;;;;1999.90;999.90;;;3.70;99.90;;;;;;4998309;28;20190;-83
2021/04/17 04:01:16;;;;;;;1999.90;999.90;;;3.80;99.90;;;;;;5016708;28;20401;-82
2021/04/17 04:03:42;;;;;;;1999.90;999.90;;;3.90;99.90;;;;;;5016691;28;20166;-82
2021/04/17 04:06:08;;;;;;;1999.90;999.90;;;3.90;99.90;;;;;;5016320;28;20193;-82
2021/04/17 04:08:33;;;;;;;1999.90;999.90;;;3.90;99.90;;;;;;4998825;28;20174;-82
2021/04/17 04:10:59;;;;;;;1999.90;999.90;;;3.80;99.90;;;;;;4998850;28;20565;-82
2021/04/17 04:13:25;;;;;;;1999.90;999.90;;;3.80;99.90;;;;;;4999291;28;20193;-82
2021/04/17 04:15:51;;;;;;;1999.90;999.90;;;3.80;99.90;;;;;;5015931;28;20174;-82
2021/04/17 04:18:17;;;;;;;1999.90;999.90;;;3.80;99.90;;;;;;5016614;28;20538;-83
2021/04/17 04:20:43;;;;;;;1999.90;999.90;;;3.80;99.90;;;;;;5016348;28;20177;-82
2021/04/17 04:23:08;;;;;;;1999.90;999.90;;;3.80;99.90;;;;;;4998211;28;20219;-82
2021/04/17 04:25:53;;;;;;;1999.90;999.90;;;3.70;99.90;;;;;;5016783;28;20408;-82
2021/04/17 04:28:18;;;;;;;1999.90;999.90;;;3.70;99.90;;;;;;5017457;28;20186;-83
2021/04/17 04:30:44;;;;;;;1999.90;999.90;;;3.60;99.90;;;;;;5017750;28;20227;-83
2021/04/17 04:33:10;;;;;;;1999.90;999.90;;;3.60;99.90;;;;;;5018063;28;20204;-83
2021/04/17 04:35:35;;;;;;;1999.90;999.90;;;3.60;99.90;;;;;;5017683;28;20401;-83
2021/04/17 04:38:01;;;;;;;1999.90;999.90;;;3.60;99.90;;;;;;5017581;28;20585;-83
2021/04/17 04:40:27;;;;;;;1999.90;999.90;;;3.60;99.90;;;;;;5017959;28;20162;-83
2021/04/17 04:42:53;;;;;;;1999.90;999.90;;;3.70;99.90;;;;;;5000067;28;20845;-85
2021/04/17 04:45:19;;;;;;;1999.90;999.90;;;3.60;99.90;;;;;;5000330;28;20420;-83
2021/04/17 04:47:45;;;;;;;1999.90;999.90;;;3.50;99.90;;;;;;4999352;28;20197;-83
2021/04/17 04:50:11;;;;;;;1999.90;999.90;;;3.50;99.90;;;;;;4999882;28;20842;-83
2021/04/17 04:52:37;;;;;;;1999.90;999.90;;;3.50;99.90;;;;;;4999821;28;20445;-85
2021/04/17 04:55:04;;;;;;;1999.90;999.90;;;3.40;99.90;;;;;;4999786;28;20181;-83
2021/04/17 04:57:29;;;;;;;1999.90;999.90;;;3.40;99.90;;;;;;5018014;28;20185;-83
2021/04/17 04:59:55;;;;;;;1999.90;999.90;;;3.40;99.90;;;;;;5017525;28;20409;-83
2021/04/17 05:02:21;;;;;;;1999.90;999.90;;;3.40;99.90;;;;;;5000486;28;20165;-83
2021/04/17 05:04:46;;;;;;;1999.90;999.90;;;3.40;99.90;;;;;;5017767;28;20626;-83
2021/04/17 05:07:12;;;;;;;1999.90;999.90;;;3.40;99.90;;;;;;5017275;28;20228;-85
2021/04/17 05:09:38;;;;;;;1999.90;999.90;;;3.50;99.90;;;;;;5017052;28;20166;-82
2021/04/17 05:12:05;;;;;;;1999.90;999.90;;;3.60;99.90;;;;;;5003953;28;20614;-84
2021/04/17 05:14:31;;;;;;;1999.90;999.90;;;3.70;99.90;;;;;;5022011;28;20604;-83
2021/04/17 05:16:59;;;;;;;1999.90;999.90;;;3.70;99.90;;;;;;5022361;28;20189;-85
2021/04/17 05:19:26;;;;;;;1999.90;999.90;;;3.90;99.90;;;;;;5022174;28;20194;-85
2021/04/17 05:21:54;;;;;;;1999.90;999.90;;;3.90;99.90;;;;;;5022024;28;20166;-85
2021/04/17 05:24:20;;;;;;;1999.90;999.90;;;3.90;99.90;;;;;;5022110;28;20297;-85
2021/04/17 05:26:45;;;;;;;1999.90;999.90;;;4.00;99.90;;;;;;5004244;28;20661;-86
2021/04/17 05:29:11;;;;;;;1999.90;999.90;;;4.00;99.90;;;;;;5021708;28;20172;-85
2021/04/17 05:31:37;;;;;;;1999.90;999.90;;;4.00;99.90;;;;;;5021628;28;20162;-85
2021/04/17 05:34:08;;;;;;;1999.90;999.90;;;4.10;99.90;;;;;;5021126;28;20172;-85
2021/04/17 05:36:35;;;;;;;1999.90;999.90;;;4.10;99.90;;;;;;5021807;28;20623;-85
2021/04/17 05:39:03;;;;;;;1999.90;999.90;;;4.20;99.90;;;;;;5004140;28;20197;-85
2021/04/17 05:41:28;;;;;;;1999.90;999.90;;;4.30;99.90;;;;;;5021740;28;20166;-85
2021/04/17 05:43:54;;;;;;;1999.90;999.90;;;4.30;99.90;;;;;;5022025;28;20218;-85
2021/04/17 05:46:20;;;;;;;1999.90;999.90;;;4.40;99.90;;;;;;5021717;28;20280;-85
2021/04/17 05:48:48;;;;;;;1999.90;999.90;;;4.50;99.90;;;;;;5003708;28;20196;-86
2021/04/17 05:51:14;;;;;;;1999.90;999.90;;;4.60;99.90;;;;;;5021221;28;20256;-85
2021/04/17 05:53:40;;;;;;;1999.90;999.90;;;4.70;99.90;;;;;;5004264;28;20165;-86
2021/04/17 05:56:06;;;;;;;1999.90;999.90;;;4.70;99.90;;;;;;5021254;28;20170;-86
2021/04/17 05:58:31;;;;;;;1999.90;999.90;;;4.90;99.90;;;;;;5003503;28;20193;-85
2021/04/17 06:00:57;;;;;;;1999.90;999.90;;;4.90;99.90;;;;;;5021487;28;20165;-85
2021/04/17 06:03:23;;;;;;;1999.90;999.90;;;5.00;99.90;;;;;;5021053;28;20217;-85
2021/04/17 06:05:49;;;;;;;1999.90;999.90;;;5.10;99.90;;;;;;5020989;28;20621;-85
2021/04/17 06:08:18;;;;;;;1999.90;999.90;;;5.10;99.90;;;;;;5021216;28;20451;-85
2021/04/17 06:10:44;;;;;;;1999.90;999.90;;;5.20;99.90;;;;;;5020451;28;20638;-85
2021/04/17 06:13:10;;;;;;;1999.90;999.90;;;5.30;99.90;;;;;;5020771;28;20170;-85
2021/04/17 06:15:35;;;;;;;1999.90;999.90;;;5.30;99.90;;;;;;5021234;28;20174;-85
2021/04/17 06:18:01;;;;;;;1999.90;999.90;;;5.30;99.90;;;;;;5020727;28;20210;-85
2021/04/17 06:20:27;;;;;;;1999.90;999.90;;;5.40;99.90;;;;;;5003273;28;20257;-85
2021/04/17 06:22:52;;;;;;;1999.90;999.90;;;5.40;99.90;;;;;;5002796;28;20532;-85
2021/04/17 06:25:18;;;;;;;1999.90;999.90;;;5.50;99.90;;;;;;5003407;28;20176;-85
2021/04/17 06:27:44;;;;;;;1999.90;999.90;;;5.50;99.90;;;;;;5020652;28;20186;-85
2021/04/17 06:30:10;;;;;;;1999.90;999.90;;;5.60;99.90;;;;;;5020639;28;20170;-86
2021/04/17 06:32:35;;;;;;;1999.90;999.90;;;5.70;99.90;;;;;;5020497;28;20667;-86
2021/04/17 06:35:01;;;;;;;1999.90;999.90;;;5.80;99.90;;;;;;5002612;28;20174;-85
2021/04/17 06:37:27;;;;;;;1999.90;999.90;;;5.90;99.90;;;;;;5020366;28;20240;-85
2021/04/17 06:39:53;;;;;;;1999.90;999.90;;;6.00;99.90;;;;;;5020318;28;20176;-86
2021/04/17 06:42:20;;;;;;;1999.90;999.90;;;6.00;99.90;;;;;;5020168;28;20198;-85
2021/04/17 06:44:47;;;;;;;1999.90;999.90;;;6.10;99.90;;;;;;5019602;28;20174;-85
2021/04/17 06:47:17;;;;;;;1999.90;999.90;;;6.20;99.90;;;;;;5018912;28;20337;-85
2021/04/17 06:49:43;;;;;;;1999.90;999.90;;;6.30;99.90;;;;;;5001379;28;20189;-85
2021/04/17 06:52:12;;;;;;;1999.90;999.90;;;6.30;99.90;;;;;;5020063;28;20146;-86
2021/04/17 06:54:38;;;;;;;1999.90;999.90;;;6.50;99.90;;;;;;5020194;28;20537;-86
2021/04/17 06:57:05;;;;;;;1999.90;999.90;;;6.50;99.90;;;;;;5020391;28;20182;-85
2021/04/17 06:59:32;;;;;;;1999.90;999.90;;;6.50;99.90;;;;;;5001783;28;20620;-85
2021/04/17 07:01:59;;;;;;;1999.90;999.90;;;6.50;99.90;;;;;;5020367;28;20185;-83
2021/04/17 07:04:25;;;;;;;1999.90;999.90;;;6.50;99.90;;;;;;5019451;28;20249;-83
2021/04/17 07:06:52;;;;;;;1999.90;999.90;;;6.60;99.90;;;;;;5001789;28;20189;-85
2021/04/17 07:09:20;;;;;;;1999.90;999.90;;;6.70;99.90;;;;;;5019553;28;20168;-85
2021/04/17 07:11:46;;;;;;;1999.90;999.90;;;6.70;99.90;;;;;;5001912;28;20174;-85
2021/04/17 07:14:15;;;;;;;1999.90;999.90;;;6.80;99.90;;;;;;5018641;28;20174;-85
2021/04/17 07:17:00;;;;;;;1999.90;999.90;;;6.80;99.90;;;;;;5019473;28;20421;-85
2021/04/17 07:19:55;;;;;;;1999.90;999.90;;;6.80;99.90;;;;;;5019901;28;20236;-85
2021/04/17 07:22:26;;;;;;;1999.90;999.90;;;6.90;99.00;;;;;;5020606;28;20162;-85
2021/04/17 07:25:12;;;;;;;1999.90;999.90;;;7.00;99.90;;;;;;5004146;28;20541;-86
2021/04/17 07:27:54;;;;;;;1999.90;999.90;;;7.20;97.90;;;;;;5021448;28;20181;-86
2021/04/17 07:30:20;;;;;;;1999.90;999.90;;;7.30;96.30;;;;;;5004669;28;20185;-84
2021/04/17 07:32:50;;;;;;;1999.90;999.90;;;7.30;95.00;;;;;;5021355;28;20158;-86
2021/04/17 07:35:22;;;;;;;1999.90;999.90;;;7.30;94.40;;;;;;5004847;28;20209;-86
2021/04/17 07:38:06;;;;;;;1999.90;999.90;;;7.40;94.30;;;;;;5004842;28;20229;-86
2021/04/17 07:40:32;;;;;;;1999.90;999.90;;;7.50;95.50;;;;;;5005889;28;20166;-83
2021/04/17 07:42:59;;;;;;;1999.90;999.90;;;7.50;91.30;;;;;;5022100;28;20197;-84
2021/04/17 07:45:32;;;;;;;1999.90;999.90;;;7.60;91.60;;;;;;5022168;28;20409;-84
2021/04/17 07:48:00;;;;;;;1999.90;999.90;;;7.70;90.50;;;;;;5062880;23;20210;-78
2021/04/17 07:50:33;;;;;;;1999.90;999.90;;;7.70;87.40;;;;;;5021529;28;20610;-78
2021/04/17 07:53:00;;;;;;;1999.90;999.90;;;7.80;86.00;;;;;;5004614;28;20189;-80
2021/04/17 07:55:32;;;;;;;1999.90;999.90;;;7.80;82.70;;;;;;5025451;28;20220;-80
2021/04/17 07:57:58;;;;;;;1999.90;999.90;;;8.00;83.40;;;;;;5022423;28;20708;-79
2021/04/17 08:00:26;;;;;;;1999.90;999.90;;;8.00;71.60;;;;;;5008976;28;20170;-79
2021/04/17 08:02:54;;;;;;;1999.90;999.90;;;8.10;71.60;;;;;;5004383;28;20189;-79
2021/04/17 08:05:22;;;;;;;1999.90;999.90;;;8.10;74.10;;;;;;5024792;28;20216;-79
2021/04/17 08:07:48;;;;;;;1999.90;999.90;;;8.20;70.40;;;;;;5025817;28;20688;-80
2021/04/17 08:10:15;;;;;;;1999.90;999.90;;;8.20;62.90;;;;;;5025243;28;20193;-80
2021/04/17 08:12:42;;;;;;;1999.90;999.90;;;8.30;59.50;;;;;;5026623;28;20205;-80
2021/04/17 08:15:19;;;;;;;1999.90;999.90;;;8.30;63.10;;;;;;5026987;28;20177;-80
2021/04/17 08:17:46;;;;;;;1999.90;999.90;;;8.30;60.40;;;;;;5025780;28;20193;-80
2021/04/17 08:20:15;;;;;;;1999.90;999.90;;;8.50;58.00;;;;;;5026516;28;20185;-80
2021/04/17 08:22:43;;;;;;;1999.90;999.90;;;8.50;51.80;;;;;;5023142;28;20182;-80
2021/04/17 08:25:10;;;;;;;1999.90;999.90;;;8.60;57.60;;;;;;5021959;28;20534;-79
2021/04/17 08:27:36;;;;;;;1999.90;999.90;;;8.70;42.30;;;;;;5026532;28;20181;-79
2021/04/17 08:30:09;;;;;;;1999.90;999.90;;;8.70;37.50;;;;;;5021708;28;20224;-79
2021/04/17 08:32:36;;;;;;;1999.90;999.90;;;8.80;35.50;;;;;;5021471;28;20377;-79
2021/04/17 08:35:07;;;;;;;1999.90;999.90;;;8.80;31.80;;;;;;5021668;28;20166;-79
2021/04/17 08:37:35;;;;;;;1999.90;999.90;;;8.90;28.00;;;;;;5025531;28;20186;-79
2021/04/17 08:40:04;;;;;;;1999.90;999.90;;;8.90;25.40;;;;;;5021306;28;20660;-79
2021/04/17 08:42:47;;;;;;;1999.90;999.90;;;8.90;24.10;;;;;;5025637;28;20506;-79
2021/04/17 08:45:18;;;;;;;1999.90;999.90;;;9.00;27.40;;;;;;5007409;28;20222;-79
2021/04/17 08:48:04;;;;;;;1999.90;999.90;;;9.10;23.60;;;;;;5024369;28;20193;-79
2021/04/17 08:50:43;;;;;;;1999.90;999.90;;;9.20;23.20;;;;;;5023708;28;20185;-79
2021/04/17 08:53:16;;;;;;;1999.90;999.90;;;9.30;22.50;;;;;;5007383;28;20224;-79
2021/04/17 08:55:46;;;;;;;1999.90;999.90;;;9.40;21.50;;;;;;5024716;28;20162;-79
2021/04/17 08:58:19;;;;;;;1999.90;999.90;;;9.50;21.80;;;;;;5025373;28;20193;-79
2021/04/17 09:00:50;;;;;;;1999.90;999.90;;;9.60;21.80;;;;;;5024125;28;20168;-79
2021/04/17 09:03:34;;;;;;;1999.90;999.90;;;9.70;19.10;;;;;;5025011;28;20165;-79
2021/04/17 09:06:00;;;;;;;1999.90;999.90;;;9.70;19.00;;;;;;5024404;28;20181;-79
2021/04/17 09:08:26;;;;;;;1999.90;999.90;;;9.80;19.70;;;;;;5006691;28;20170;-79
2021/04/17 09:10:53;;;;;;;1999.90;999.90;;;9.80;17.80;;;;;;5024498;28;20576;-79
2021/04/17 09:13:20;;;;;;;1999.90;999.90;;;9.90;15.70;;;;;;5024028;28;20220;-79
2021/04/17 09:15:53;;;;;;;1999.90;999.90;;;9.90;15.70;;;;;;5024577;28;20177;-79
2021/04/17 09:18:31;;;;;;;1999.90;999.90;;;10.00;15.70;;;;;;5025222;28;20185;-79
2021/04/17 09:20:57;;;;;;;1999.90;999.90;;;10.10;14.50;;;;;;5008007;28;20178;-79
2021/04/17 09:23:40;;;;;;;1999.90;999.90;;;10.10;16.10;;;;;;5021155;28;20162;-79
2021/04/17 09:26:09;;;;;;;1999.90;999.90;;;10.20;16.40;;;;;;5020979;28;20417;-79
2021/04/17 09:28:39;;;;;;;1999.90;999.90;;;10.40;15.10;;;;;;5021083;28;20185;-79
2021/04/17 09:31:06;;;;;;;1999.90;999.90;;;10.40;13.30;;;;;;5021072;28;20173;-80
2021/04/17 09:33:32;;;;;;;1999.90;999.90;;;10.50;14.00;;;;;;5003896;28;20166;-80
2021/04/17 09:35:58;;;;;;;1999.90;999.90;;;10.60;15.40;;;;;;5021105;28;20239;-79
2021/04/17 09:38:30;;;;;;;1999.90;999.90;;;10.70;15.20;;;;;;5021170;28;20460;-79
2021/04/17 09:40:56;;;;;;;1999.90;999.90;;;10.90;16.60;;;;;;5021035;28;20154;-79
2021/04/17 09:43:35;;;;;;;1999.90;999.90;;;11.00;12.80;;;;;;5021176;28;20162;-79
2021/04/17 09:46:22;;;;;;;1999.90;999.90;;;11.00;11.90;;;;;;5024084;28;20158;-79
2021/04/17 09:48:49;;;;;;;1999.90;999.90;;;11.10;12.60;;;;;;5019999;28;20209;-80
2021/04/17 09:51:17;;;;;;;1999.90;999.90;;;11.20;9.90;;;;;;5006749;28;20212;-79
2021/04/17 09:53:43;;;;;;;1999.90;999.90;;;11.20;7.90;;;;;;5007169;28;20173;-80
2021/04/17 09:56:14;;;;;;;1999.90;999.90;;;11.10;8.20;;;;;;5024984;28;20169;-79
2021/04/17 09:58:44;;;;;;;1999.90;999.90;;;11.10;8.60;;;;;;5010712;28;20490;-79
2021/04/17 10:01:15;;;;;;;1999.90;999.90;;;11.30;10.20;;;;;;5006566;28;20514;-79
2021/04/17 10:03:43;;;;;;;1999.90;999.90;;;11.50;9.90;;;;;;5024189;28;20169;-79
2021/04/17 10:06:23;;;;;;;1999.90;999.90;;;11.70;9.10;;;;;;5024129;28;20220;-80
2021/04/17 10:08:50;;;;;;;1999.90;999.90;;;11.80;6.50;;;;;;5027628;28;20159;-79
2021/04/17 10:11:27;;;;;;;1999.90;999.90;;;12.10;8.20;;;;;;5027105;28;20158;-79
2021/04/17 10:13:54;;;;;;;1999.90;999.90;;;12.30;7.90;;;;;;5006796;28;20172;-79
2021/04/17 10:16:34;;;;;;;1999.90;999.90;;;12.50;7.20;;;;;;5024291;28;20185;-79
2021/04/17 10:19:02;;;;;;;1999.90;999.90;;;12.60;3.80;;;;;;5006456;28;20304;-79
2021/04/17 10:21:33;;;;;;;1999.90;999.90;;;12.60;3.10;;;;;;5023996;28;20170;-80
2021/04/17 10:24:28;;;;;;;1999.90;999.90;;;12.50;2.80;;;;;;5024252;28;20552;-80
2021/04/17 10:26:55;;;;;;;1999.90;999.90;;;12.60;1.50;;;;;;5010434;28;20190;-79
2021/04/17 10:29:32;;;;;;;1999.90;999.90;;;12.60;1.50;;;;;;5028138;28;20265;-79
2021/04/17 10:32:06;;;;;;;1999.90;999.90;;;12.60;1.00;;;;;;5029346;28;20221;-79
2021/04/17 10:34:33;;;;;;;1999.90;999.90;;;12.70;1.00;;;;;;5029097;28;20153;-80
2021/04/17 10:37:02;;;;;;;1999.90;999.90;;;13.00;1.40;;;;;;5027559;28;20182;-80
2021/04/17 10:39:28;;;;;;;1999.90;999.90;;;13.50;1.50;;;;;;5029084;28;20182;-80
2021/04/17 10:41:59;;;;;;;1999.90;999.90;;;13.60;1.00;;;;;;5029882;28;20166;-79
2021/04/17 10:44:25;;;;;;;1999.90;999.90;;;13.60;1.00;;;;;;5027323;28;20162;-79
2021/04/17 10:46:50;;;;;;;1999.90;999.90;;;13.50;1.00;;;;;;5027553;28;20205;-79
2021/04/17 10:49:36;;;;;;;1999.90;999.90;;;13.50;1.00;;;;;;5029690;28;20185;-79
2021/04/17 10:52:06;;;;;;;1999.90;999.90;;;13.40;1.00;;;;;;5030163;28;20197;-79
2021/04/17 10:54:32;;;;;;;1999.90;999.90;;;13.30;1.00;;;;;;5028870;28;20158;-79
2021/04/17 10:57:07;;;;;;;1999.90;999.90;;;13.20;1.00;;;;;;5026727;28;20185;-79
2021/04/17 10:59:55;;;;;;;1999.90;999.90;;;13.20;1.00;;;;;;5008254;28;20192;-79
2021/04/17 11:02:25;;;;;;;1999.90;999.90;;;13.00;1.00;;;;;;5026062;28;20228;-79
2021/04/17 11:04:51;;;;;;;1999.90;999.90;;;12.90;1.00;;;;;;5026548;28;20162;-79
2021/04/17 11:07:17;;;;;;;1999.90;999.90;;;13.00;1.00;;;;;;5023941;28;20244;-80
2021/04/17 11:09:49;;;;;;;1999.90;999.90;;;13.10;1.00;;;;;;5022219;28;20413;-79
2021/04/17 11:12:35;;;;;;;1999.90;999.90;;;13.10;1.00;;;;;;5024575;28;20201;-79
2021/04/17 11:15:22;;;;;;;1999.90;999.90;;;13.20;1.00;;;;;;5022914;28;20168;-80
2021/04/17 11:18:12;;;;;;;1999.90;999.90;;;13.30;1.00;;;;;;5021589;28;20197;-80
2021/04/17 11:20:48;;;;;;;1999.90;999.90;;;13.30;1.00;;;;;;5021664;28;20158;-80
2021/04/17 11:23:32;;;;;;;1999.90;999.90;;;13.10;1.00;;;;;;5007143;28;20684;-80
2021/04/17 11:25:59;;;;;;;1999.90;999.90;;;13.20;1.00;;;;;;5023321;28;20169;-79
2021/04/17 11:28:26;;;;;;;1999.90;999.90;;;13.40;1.00;;;;;;5023911;28;20169;-80
2021/04/17 11:30:53;;;;;;;1999.90;999.90;;;13.50;1.00;;;;;;5021567;28;20277;-80
2021/04/17 11:33:19;;;;;;;1999.90;999.90;;;13.30;1.00;;;;;;5028805;28;20591;-80
2021/04/17 11:35:45;;;;;;;1999.90;999.90;;;13.20;1.00;;;;;;5035680;28;20261;-80
2021/04/17 11:38:11;;;;;;;1999.90;999.90;;;13.20;1.00;;;;;;5032136;28;20189;-79
2021/04/17 11:40:37;;;;;;;1999.90;999.90;;;13.50;1.00;;;;;;5028388;28;20405;-79
2021/04/17 11:43:02;;;;;;;1999.90;999.90;;;13.90;1.00;;;;;;5027162;28;20208;-80
2021/04/17 11:45:31;;;;;;;1999.90;999.90;;;14.20;1.00;;;;;;5026293;28;20173;-80
2021/04/17 11:47:57;;;;;;;1999.90;999.90;;;14.20;1.00;;;;;;5025940;28;20178;-80
2021/04/17 11:50:23;;;;;;;1999.90;999.90;;;14.30;1.00;;;;;;5025124;28;20423;-80
2021/04/17 11:52:48;;;;;;;1999.90;999.90;;;14.60;1.00;;;;;;5003842;28;20178;-80
2021/04/17 11:55:14;;;;;;;1999.90;999.90;;;14.90;1.00;;;;;;5020110;28;20522;-79
2021/04/17 11:57:40;;;;;;;1999.90;999.90;;;15.30;1.00;;;;;;5003888;28;20205;-79
2021/04/17 12:00:06;;;;;;;1999.90;999.90;;;15.70;1.00;;;;;;5021871;28;20166;-79
2021/04/17 12:02:32;;;;;;;1999.90;999.90;;;15.80;1.00;;;;;;5022573;28;20177;-79
2021/04/17 12:04:58;;;;;;;1999.90;999.90;;;15.80;1.00;;;;;;5022028;28;20401;-80
2021/04/17 12:07:24;;;;;;;1999.90;999.90;;;15.30;1.00;;;;;;5022666;28;20488;-80
2021/04/17 12:09:52;;;;;;;1999.90;999.90;;;14.70;1.00;;;;;;5023154;28;20900;-80
2021/04/17 12:12:17;;;;;;;1999.90;999.90;;;14.80;1.00;;;;;;5004043;28;20193;-80
2021/04/17 12:14:43;;;;;;;1999.90;999.90;;;15.20;1.00;;;;;;5021719;28;20881;-80
2021/04/17 12:17:08;;;;;;;1999.90;999.90;;;15.50;1.00;;;;;;5021753;28;20664;-79